sensor_id;sensor_type;location;lat;lon;timestamp;temperature;humidity
7684;DHT22;3884;48.616;12.872;2022-09-03T00:00:51;12.10;1.00
7684;DHT22;3884;48.616;12.872;2022-09-03T00:03:22;12.10;1.00
7684;DHT22;3884;48.616;12.872;2022-09-03T00:05:55;12.00;99.90
7684;DHT22;3884;48.616;12.872;2022-09-03T00:08:31;12.00;99.90
7684;DHT22;3884;48.616;12.872;2022-09-03T00:11:02;11.90;65.10
7684;DHT22;3884;48.616;12.872;2022-09-03T00:13:35;11.90;99.90
7684;DHT22;3884;48.616;12.872;2022-09-03T00:16:07;11.90;99.90
7684;DHT22;3884;48.616;12.872;2022-09-03T00:18:40;11.80;1.00
7684;DHT22;3884;48.616;12.872;2022-09-03T00:21:13;11.80;1.00
7684;DHT22;3884;48.616;12.872;2022-09-03T00:23:43;11.90;99.90
7684;DHT22;3884;48.616;12.872;2022-09-03T00:26:23;11.90;1.00
7684;DHT22;3884;48.616;12.872;2022-09-03T00:28:56;11.80;1.00
7684;DHT22;3884;48.616;12.872;2022-09-03T00:31:29;11.70;1.00
7684;DHT22;3884;48.616;12.872;2022-09-03T00:34:00;11.50;99.90
7684;DHT22;3884;48.616;12.872;2022-09-03T00:36:32;11.50;99.90
7684;DHT22;3884;48.616;12.872;2022-09-03T00:39:01;11.40;1.00
7684;DHT22;3884;48.616;12.872;2022-09-03T00:41:34;11.40;1.00
7684;DHT22;3884;48.616;12.872;2022-09-03T00:44:28;11.40;99.90
7684;DHT22;3884;48.616;12.872;2022-09-03T00:47:03;11.40;99.90
7684;DHT22;3884;48.616;12.872;2022-09-03T00:49:43;11.50;1.00
7684;DHT22;3884;48.616;12.872;2022-09-03T00:52:17;11.50;1.00
7684;DHT22;3884;48.616;12.872;2022-09-03T00:54:53;11.40;99.90
7684;DHT22;3884;48.616;12.872;2022-09-03T00:57:33;11.40;99.90
7684;DHT22;3884;48.616;12.872;2022-09-03T01:00:06;11.30;1.00
7684;DHT22;3884;48.616;12.872;2022-09-03T01:02:44;11.30;99.90
7684;DHT22;3884;48.616;12.872;2022-09-03T01:05:24;11.20;99.90
7684;DHT22;3884;48.616;12.872;2022-09-03T01:08:01;11.20;61.40
7684;DHT22;3884;48.616;12.872;2022-09-03T01:10:37;11.30;1.00
7684;DHT22;3884;48.616;12.872;2022-09-03T01:13:12;11.30;99.90
7684;DHT22;3884;48.616;12.872;2022-09-03T01:15:47;11.20;99.90
7684;DHT22;3884;48.616;12.872;2022-09-03T01:18:24;11.20;1.00
7684;DHT22;3884;48.616;12.872;2022-09-03T01:21:04;11.20;1.00
7684;DHT22;3884;48.616;12.872;2022-09-03T01:23:52;11.20;1.00
7684;DHT22;3884;48.616;12.872;2022-09-03T01:26:38;11.10;99.90
7684;DHT22;3884;48.616;12.872;2022-09-03T01:29:14;11.10;25.20
7684;DHT22;3884;48.616;12.872;2022-09-03T01:31:50;11.10;1.00
7684;DHT22;3884;48.616;12.872;2022-09-03T01:34:27;11.00;80.40
7684;DHT22;3884;48.616;12.872;2022-09-03T01:37:05;11.00;99.90
7684;DHT22;3884;48.616;12.872;2022-09-03T01:39:40;10.90;99.90
7684;DHT22;3884;48.616;12.872;2022-09-03T01:42:18;10.90;1.00
7684;DHT22;3884;48.616;12.872;2022-09-03T01:45:08;10.90;99.90
7684;DHT22;3884;48.616;12.872;2022-09-03T01:47:46;10.90;99.90
7684;DHT22;3884;48.616;12.872;2022-09-03T01:50:25;10.80;1.00
7684;DHT22;3884;48.616;12.872;2022-09-03T01:52:58;10.80;99.90
7684;DHT22;3884;48.616;12.872;2022-09-03T01:55:31;10.80;99.90
7684;DHT22;3884;48.616;12.872;2022-09-03T01:58:02;10.70;1.00
7684;DHT22;3884;48.616;12.872;2022-09-03T02:00:35;10.60;99.90
7684;DHT22;3884;48.616;12.872;2022-09-03T02:03:05;10.60;1.00
7684;DHT22;3884;48.616;12.872;2022-09-03T02:05:33;10.50;1.00
7684;DHT22;3884;48.616;12.872;2022-09-03T02:08:02;10.40;1.00
7684;DHT22;3884;48.616;12.872;2022-09-03T02:10:32;10.50;99.90
7684;DHT22;3884;48.616;12.872;2022-09-03T02:13:04;10.50;99.90
7684;DHT22;3884;48.616;12.872;2022-09-03T02:15:33;10.60;1.00
7684;DHT22;3884;48.616;12.872;2022-09-03T02:18:03;10.60;1.00
7684;DHT22;3884;48.616;12.872;2022-09-03T02:20:31;10.70;1.00
7684;DHT22;3884;48.616;12.872;2022-09-03T02:22:59;10.70;99.90
7684;DHT22;3884;48.616;12.872;2022-09-03T02:25:31;10.70;1.00
7684;DHT22;3884;48.616;12.872;2022-09-03T02:27:59;10.60;1.00
7684;DHT22;3884;48.616;12.872;2022-09-03T02:30:27;10.50;99.90
7684;DHT22;3884;48.616;12.872;2022-09-03T02:32:55;10.50;1.00
7684;DHT22;3884;48.616;12.872;2022-09-03T02:35:22;10.50;1.00
7684;DHT22;3884;48.616;12.872;2022-09-03T02:37:49;10.40;99.90
7684;DHT22;3884;48.616;12.872;2022-09-03T02:40:16;10.50;99.90
7684;DHT22;3884;48.616;12.872;2022-09-03T02:42:43;10.40;1.00
7684;DHT22;3884;48.616;12.872;2022-09-03T02:45:19;10.30;1.00
7684;DHT22;3884;48.616;12.872;2022-09-03T02:47:51;10.20;1.00
7684;DHT22;3884;48.616;12.872;2022-09-03T02:50:21;10.20;1.00
7684;DHT22;3884;48.616;12.872;2022-09-03T02:52:48;10.30;99.90
7684;DHT22;3884;48.616;12.872;2022-09-03T02:55:15;10.40;1.00
7684;DHT22;3884;48.616;12.872;2022-09-03T02:57:43;10.40;99.90
7684;DHT22;3884;48.616;12.872;2022-09-03T03:00:11;10.30;99.90
7684;DHT22;3884;48.616;12.872;2022-09-03T03:02:38;10.20;99.90
7684;DHT22;3884;48.616;12.872;2022-09-03T03:05:07;10.20;1.00
7684;DHT22;3884;48.616;12.872;2022-09-03T03:07:38;10.20;14.00
7684;DHT22;3884;48.616;12.872;2022-09-03T03:10:07;10.20;1.00
7684;DHT22;3884;48.616;12.872;2022-09-03T03:12:34;10.10;1.00
7684;DHT22;3884;48.616;12.872;2022-09-03T03:15:01;10.10;95.90
7684;DHT22;3884;48.616;12.872;2022-09-03T03:17:28;10.20;99.90
7684;DHT22;3884;48.616;12.872;2022-09-03T03:19:56;10.20;1.00
7684;DHT22;3884;48.616;12.872;2022-09-03T03:22:23;10.30;99.90
7684;DHT22;3884;48.616;12.872;2022-09-03T03:24:51;10.20;1.00
7684;DHT22;3884;48.616;12.872;2022-09-03T03:27:20;10.20;99.90
7684;DHT22;3884;48.616;12.872;2022-09-03T03:29:47;10.20;99.90
7684;DHT22;3884;48.616;12.872;2022-09-03T03:32:15;10.30;1.00
7684;DHT22;3884;48.616;12.872;2022-09-03T03:34:41;10.20;1.00
7684;DHT22;3884;48.616;12.872;2022-09-03T03:37:08;10.10;1.00
7684;DHT22;3884;48.616;12.872;2022-09-03T03:39:35;10.20;1.00
7684;DHT22;3884;48.616;12.872;2022-09-03T03:42:04;10.20;92.80
7684;DHT22;3884;48.616;12.872;2022-09-03T03:44:31;10.30;99.90
7684;DHT22;3884;48.616;12.872;2022-09-03T03:46:58;10.20;99.90
7684;DHT22;3884;48.616;12.872;2022-09-03T03:49:24;10.20;7.60
7684;DHT22;3884;48.616;12.872;2022-09-03T03:51:51;10.20;9.10
7684;DHT22;3884;48.616;12.872;2022-09-03T03:54:18;10.20;15.10
7684;DHT22;3884;48.616;12.872;2022-09-03T03:56:45;10.20;90.30
7684;DHT22;3884;48.616;12.872;2022-09-03T03:59:13;10.20;99.90
7684;DHT22;3884;48.616;12.872;2022-09-03T04:01:40;10.30;99.90
7684;DHT22;3884;48.616;12.872;2022-09-03T04:04:07;10.30;99.90
7684;DHT22;3884;48.616;12.872;2022-09-03T04:06:34;10.20;99.90
7684;DHT22;3884;48.616;12.872;2022-09-03T04:09:01;10.30;74.50
7684;DHT22;3884;48.616;12.872;2022-09-03T04:11:28;10.40;1.00
7684;DHT22;3884;48.616;12.872;2022-09-03T04:13:54;10.40;1.00
7684;DHT22;3884;48.616;12.872;2022-09-03T04:16:24;10.40;1.00
7684;DHT22;3884;48.616;12.872;2022-09-03T04:18:52;10.30;1.00
7684;DHT22;3884;48.616;12.872;2022-09-03T04:21:21;10.30;1.00
7684;DHT22;3884;48.616;12.872;2022-09-03T04:23:50;10.40;1.00
7684;DHT22;3884;48.616;12.872;2022-09-03T04:26:19;10.30;1.00
7684;DHT22;3884;48.616;12.872;2022-09-03T04:28:46;10.00;72.20
7684;DHT22;3884;48.616;12.872;2022-09-03T04:31:15;10.10;99.90
7684;DHT22;3884;48.616;12.872;2022-09-03T04:33:43;10.20;99.90
7684;DHT22;3884;48.616;12.872;2022-09-03T04:36:11;10.20;99.90
7684;DHT22;3884;48.616;12.872;2022-09-03T04:38:39;10.10;99.90
7684;DHT22;3884;48.616;12.872;2022-09-03T04:41:08;10.10;99.90
7684;DHT22;3884;48.616;12.872;2022-09-03T04:43:36;10.20;99.90
7684;DHT22;3884;48.616;12.872;2022-09-03T04:46:05;10.30;99.90
7684;DHT22;3884;48.616;12.872;2022-09-03T04:48:34;10.40;99.90
7684;DHT22;3884;48.616;12.872;2022-09-03T04:51:05;10.40;99.90
7684;DHT22;3884;48.616;12.872;2022-09-03T04:53:33;10.50;99.90
7684;DHT22;3884;48.616;12.872;2022-09-03T04:56:01;10.50;99.90
7684;DHT22;3884;48.616;12.872;2022-09-03T04:58:28;10.60;99.90
7684;DHT22;3884;48.616;12.872;2022-09-03T05:00:55;10.60;99.90
7684;DHT22;3884;48.616;12.872;2022-09-03T05:03:22;10.60;99.90
7684;DHT22;3884;48.616;12.872;2022-09-03T05:05:53;10.80;99.90
7684;DHT22;3884;48.616;12.872;2022-09-03T05:08:22;10.70;99.90
7684;DHT22;3884;48.616;12.872;2022-09-03T05:10:49;10.70;99.90
7684;DHT22;3884;48.616;12.872;2022-09-03T05:13:16;10.60;99.90
7684;DHT22;3884;48.616;12.872;2022-09-03T05:15:43;10.70;99.90
7684;DHT22;3884;48.616;12.872;2022-09-03T05:18:10;10.70;99.90
7684;DHT22;3884;48.616;12.872;2022-09-03T05:20:37;10.80;99.90
7684;DHT22;3884;48.616;12.872;2022-09-03T05:23:04;10.80;99.90
7684;DHT22;3884;48.616;12.872;2022-09-03T05:25:33;11.00;95.80
7684;DHT22;3884;48.616;12.872;2022-09-03T05:28:03;11.00;41.00
7684;DHT22;3884;48.616;12.872;2022-09-03T05:30:30;11.00;54.70
7684;DHT22;3884;48.616;12.872;2022-09-03T05:32:56;11.10;99.90
7684;DHT22;3884;48.616;12.872;2022-09-03T05:35:23;11.10;99.90
7684;DHT22;3884;48.616;12.872;2022-09-03T05:37:53;11.20;99.90
7684;DHT22;3884;48.616;12.872;2022-09-03T05:40:21;11.20;99.90
7684;DHT22;3884;48.616;12.872;2022-09-03T05:42:55;11.20;99.90
7684;DHT22;3884;48.616;12.872;2022-09-03T05:45:23;11.20;99.90
7684;DHT22;3884;48.616;12.872;2022-09-03T05:47:50;11.10;99.90
7684;DHT22;3884;48.616;12.872;2022-09-03T05:50:17;11.20;99.90
7684;DHT22;3884;48.616;12.872;2022-09-03T05:52:44;11.20;99.90
7684;DHT22;3884;48.616;12.872;2022-09-03T05:55:11;11.30;99.90
7684;DHT22;3884;48.616;12.872;2022-09-03T05:57:37;11.30;99.90
7684;DHT22;3884;48.616;12.872;2022-09-03T06:00:08;11.40;99.90
7684;DHT22;3884;48.616;12.872;2022-09-03T06:02:37;11.50;99.90
7684;DHT22;3884;48.616;12.872;2022-09-03T06:05:05;11.50;99.90
7684;DHT22;3884;48.616;12.872;2022-09-03T06:07:32;11.60;99.90
7684;DHT22;3884;48.616;12.872;2022-09-03T06:09:59;11.70;99.90
7684;DHT22;3884;48.616;12.872;2022-09-03T06:12:26;11.80;99.90
7684;DHT22;3884;48.616;12.872;2022-09-03T06:14:53;12.00;99.90
7684;DHT22;3884;48.616;12.872;2022-09-03T06:17:21;12.10;99.90
7684;DHT22;3884;48.616;12.872;2022-09-03T06:19:48;12.30;99.90
7684;DHT22;3884;48.616;12.872;2022-09-03T06:22:15;12.40;1.00
7684;DHT22;3884;48.616;12.872;2022-09-03T06:24:42;12.50;1.00
7684;DHT22;3884;48.616;12.872;2022-09-03T06:27:09;12.70;99.90
7684;DHT22;3884;48.616;12.872;2022-09-03T06:29:36;12.80;99.90
7684;DHT22;3884;48.616;12.872;2022-09-03T06:32:04;13.00;1.00
7684;DHT22;3884;48.616;12.872;2022-09-03T06:34:32;13.30;58.60
7684;DHT22;3884;48.616;12.872;2022-09-03T06:36:59;13.50;99.90
7684;DHT22;3884;48.616;12.872;2022-09-03T06:39:26;13.60;99.90
7684;DHT22;3884;48.616;12.872;2022-09-03T06:41:53;13.70;99.90
7684;DHT22;3884;48.616;12.872;2022-09-03T06:44:26;13.90;99.90
7684;DHT22;3884;48.616;12.872;2022-09-03T06:46:53;14.00;99.90
7684;DHT22;3884;48.616;12.872;2022-09-03T06:49:20;14.10;99.90
7684;DHT22;3884;48.616;12.872;2022-09-03T06:51:51;14.20;1.00
7684;DHT22;3884;48.616;12.872;2022-09-03T06:54:17;14.30;1.00
7684;DHT22;3884;48.616;12.872;2022-09-03T06:56:44;14.40;1.00
7684;DHT22;3884;48.616;12.872;2022-09-03T06:59:13;14.50;99.90
7684;DHT22;3884;48.616;12.872;2022-09-03T07:01:41;14.60;1.00
7684;DHT22;3884;48.616;12.872;2022-09-03T07:04:08;14.70;1.00
7684;DHT22;3884;48.616;12.872;2022-09-03T07:06:37;14.80;99.90
7684;DHT22;3884;48.616;12.872;2022-09-03T07:09:06;15.00;99.90
7684;DHT22;3884;48.616;12.872;2022-09-03T07:11:34;15.00;99.90
7684;DHT22;3884;48.616;12.872;2022-09-03T07:14:02;15.30;99.90
7684;DHT22;3884;48.616;12.872;2022-09-03T07:16:32;15.40;99.90
7684;DHT22;3884;48.616;12.872;2022-09-03T07:18:59;15.60;99.90
7684;DHT22;3884;48.616;12.872;2022-09-03T07:21:29;15.70;99.90
7684;DHT22;3884;48.616;12.872;2022-09-03T07:23:58;15.80;23.70
7684;DHT22;3884;48.616;12.872;2022-09-03T07:26:29;15.90;27.40
7684;DHT22;3884;48.616;12.872;2022-09-03T07:28:57;16.00;1.00
7684;DHT22;3884;48.616;12.872;2022-09-03T07:31:26;16.20;11.50
7684;DHT22;3884;48.616;12.872;2022-09-03T07:33:54;16.30;1.00
7684;DHT22;3884;48.616;12.872;2022-09-03T07:36:23;16.30;1.00
7684;DHT22;3884;48.616;12.872;2022-09-03T07:38:50;16.40;4.70
7684;DHT22;3884;48.616;12.872;2022-09-03T07:41:17;16.50;71.90
7684;DHT22;3884;48.616;12.872;2022-09-03T07:43:46;16.70;1.00
7684;DHT22;3884;48.616;12.872;2022-09-03T07:46:14;16.90;1.00
7684;DHT22;3884;48.616;12.872;2022-09-03T07:48:45;16.70;1.00
7684;DHT22;3884;48.616;12.872;2022-09-03T07:51:13;17.00;1.00
7684;DHT22;3884;48.616;12.872;2022-09-03T07:53:40;16.90;1.00
7684;DHT22;3884;48.616;12.872;2022-09-03T07:56:08;17.10;1.00
7684;DHT22;3884;48.616;12.872;2022-09-03T07:58:36;17.10;1.00
7684;DHT22;3884;48.616;12.872;2022-09-03T08:01:06;17.40;1.00
7684;DHT22;3884;48.616;12.872;2022-09-03T08:03:33;17.60;1.00
7684;DHT22;3884;48.616;12.872;2022-09-03T08:06:01;17.90;1.00
7684;DHT22;3884;48.616;12.872;2022-09-03T08:08:28;18.00;1.00
7684;DHT22;3884;48.616;12.872;2022-09-03T08:11:03;18.40;1.00
7684;DHT22;3884;48.616;12.872;2022-09-03T08:13:33;18.40;1.00
7684;DHT22;3884;48.616;12.872;2022-09-03T08:16:00;18.10;1.00
7684;DHT22;3884;48.616;12.872;2022-09-03T08:18:29;18.10;1.00
7684;DHT22;3884;48.616;12.872;2022-09-03T08:21:00;18.10;1.00
7684;DHT22;3884;48.616;12.872;2022-09-03T08:23:27;18.10;1.00
7684;DHT22;3884;48.616;12.872;2022-09-03T08:25:57;18.10;1.00
7684;DHT22;3884;48.616;12.872;2022-09-03T08:28:24;18.20;1.00
7684;DHT22;3884;48.616;12.872;2022-09-03T08:30:51;18.30;1.00
7684;DHT22;3884;48.616;12.872;2022-09-03T08:33:18;18.50;1.00
7684;DHT22;3884;48.616;12.872;2022-09-03T08:36:04;18.40;1.00
7684;DHT22;3884;48.616;12.872;2022-09-03T08:38:31;18.40;1.00
7684;DHT22;3884;48.616;12.872;2022-09-03T08:41:06;18.40;1.00
7684;DHT22;3884;48.616;12.872;2022-09-03T08:46:35;18.10;1.00
7684;DHT22;3884;48.616;12.872;2022-09-03T08:49:09;18.00;1.00
7684;DHT22;3884;48.616;12.872;2022-09-03T08:51:38;18.20;1.00
7684;DHT22;3884;48.616;12.872;2022-09-03T08:54:07;18.60;1.00
7684;DHT22;3884;48.616;12.872;2022-09-03T08:56:37;18.80;1.00
7684;DHT22;3884;48.616;12.872;2022-09-03T08:59:05;19.30;1.00
7684;DHT22;3884;48.616;12.872;2022-09-03T09:01:39;19.60;99.90
7684;DHT22;3884;48.616;12.872;2022-09-03T09:04:14;19.60;99.90
7684;DHT22;3884;48.616;12.872;2022-09-03T09:06:49;19.70;99.90
7684;DHT22;3884;48.616;12.872;2022-09-03T09:09:27;19.90;99.90
7684;DHT22;3884;48.616;12.872;2022-09-03T09:12:02;20.10;99.90
7684;DHT22;3884;48.616;12.872;2022-09-03T09:14:35;20.00;99.90
7684;DHT22;3884;48.616;12.872;2022-09-03T09:17:19;20.10;99.90
7684;DHT22;3884;48.616;12.872;2022-09-03T09:19:56;19.90;99.90
7684;DHT22;3884;48.616;12.872;2022-09-03T09:22:30;19.80;99.90
7684;DHT22;3884;48.616;12.872;2022-09-03T09:25:00;19.60;99.90
7684;DHT22;3884;48.616;12.872;2022-09-03T09:27:29;19.70;99.90
7684;DHT22;3884;48.616;12.872;2022-09-03T09:29:58;19.70;99.90
7684;DHT22;3884;48.616;12.872;2022-09-03T09:32:27;20.00;99.90
7684;DHT22;3884;48.616;12.872;2022-09-03T09:34:55;20.40;99.90
7684;DHT22;3884;48.616;12.872;2022-09-03T09:37:22;20.70;99.90
7684;DHT22;3884;48.616;12.872;2022-09-03T09:39:56;20.70;99.90
7684;DHT22;3884;48.616;12.872;2022-09-03T09:42:23;20.60;99.90
7684;DHT22;3884;48.616;12.872;2022-09-03T09:44:51;20.50;99.90
7684;DHT22;3884;48.616;12.872;2022-09-03T09:47:24;20.40;99.90
7684;DHT22;3884;48.616;12.872;2022-09-03T09:49:54;20.70;99.90
7684;DHT22;3884;48.616;12.872;2022-09-03T09:52:23;20.80;99.90
7684;DHT22;3884;48.616;12.872;2022-09-03T09:54:51;20.70;99.90
7684;DHT22;3884;48.616;12.872;2022-09-03T09:57:24;20.60;99.90
7684;DHT22;3884;48.616;12.872;2022-09-03T10:00:03;20.80;99.90
7684;DHT22;3884;48.616;12.872;2022-09-03T10:02:37;20.80;99.90
7684;DHT22;3884;48.616;12.872;2022-09-03T10:05:14;21.00;99.90
7684;DHT22;3884;48.616;12.872;2022-09-03T10:07:54;21.10;99.90
7684;DHT22;3884;48.616;12.872;2022-09-03T10:10:21;21.20;99.90
7684;DHT22;3884;48.616;12.872;2022-09-03T10:12:55;21.10;99.90
7684;DHT22;3884;48.616;12.872;2022-09-03T10:15:31;21.30;99.90
7684;DHT22;3884;48.616;12.872;2022-09-03T10:18:03;21.30;99.90
7684;DHT22;3884;48.616;12.872;2022-09-03T10:20:37;21.40;99.90
7684;DHT22;3884;48.616;12.872;2022-09-03T10:23:14;21.40;99.90
7684;DHT22;3884;48.616;12.872;2022-09-03T10:25:58;21.30;99.90
7684;DHT22;3884;48.616;12.872;2022-09-03T10:28:34;21.10;99.90
7684;DHT22;3884;48.616;12.872;2022-09-03T10:31:19;20.60;99.90
7684;DHT22;3884;48.616;12.872;2022-09-03T10:33:58;20.50;99.90
7684;DHT22;3884;48.616;12.872;2022-09-03T10:36:32;20.40;99.90
7684;DHT22;3884;48.616;12.872;2022-09-03T10:39:05;20.60;99.90
7684;DHT22;3884;48.616;12.872;2022-09-03T10:41:44;20.80;99.90
7684;DHT22;3884;48.616;12.872;2022-09-03T10:44:30;21.10;99.90
7684;DHT22;3884;48.616;12.872;2022-09-03T10:47:11;21.10;99.90
7684;DHT22;3884;48.616;12.872;2022-09-03T10:49:49;21.10;99.90
7684;DHT22;3884;48.616;12.872;2022-09-03T10:52:25;21.40;99.90
7684;DHT22;3884;48.616;12.872;2022-09-03T10:55:12;21.30;99.90
7684;DHT22;3884;48.616;12.872;2022-09-03T10:57:47;21.20;99.90
7684;DHT22;3884;48.616;12.872;2022-09-03T11:00:17;21.40;99.90
7684;DHT22;3884;48.616;12.872;2022-09-03T11:05:57;21.40;99.90
7684;DHT22;3884;48.616;12.872;2022-09-03T11:08:29;21.30;99.90
7684;DHT22;3884;48.616;12.872;2022-09-03T11:11:08;21.30;99.90
7684;DHT22;3884;48.616;12.872;2022-09-03T11:13:39;21.30;99.90
7684;DHT22;3884;48.616;12.872;2022-09-03T11:16:13;21.40;99.90
7684;DHT22;3884;48.616;12.872;2022-09-03T11:18:46;21.50;99.90
7684;DHT22;3884;48.616;12.872;2022-09-03T11:21:17;21.70;99.90
7684;DHT22;3884;48.616;12.872;2022-09-03T11:23:48;21.70;99.90
7684;DHT22;3884;48.616;12.872;2022-09-03T11:26:18;21.50;99.90
7684;DHT22;3884;48.616;12.872;2022-09-03T11:28:55;21.60;99.90
7684;DHT22;3884;48.616;12.872;2022-09-03T11:31:32;21.40;99.90
7684;DHT22;3884;48.616;12.872;2022-09-03T11:34:05;21.50;99.90
7684;DHT22;3884;48.616;12.872;2022-09-03T11:36:35;21.50;99.90
7684;DHT22;3884;48.616;12.872;2022-09-03T11:39:12;21.50;99.90
7684;DHT22;3884;48.616;12.872;2022-09-03T11:41:41;21.30;99.90
7684;DHT22;3884;48.616;12.872;2022-09-03T11:44:16;21.50;99.90
7684;DHT22;3884;48.616;12.872;2022-09-03T11:46:54;21.60;99.90
7684;DHT22;3884;48.616;12.872;2022-09-03T11:49:28;21.80;99.90
7684;DHT22;3884;48.616;12.872;2022-09-03T11:51:58;21.50;99.90
7684;DHT22;3884;48.616;12.872;2022-09-03T11:54:27;21.50;99.90
7684;DHT22;3884;48.616;12.872;2022-09-03T11:57:07;21.50;99.90
7684;DHT22;3884;48.616;12.872;2022-09-03T11:59:36;21.60;99.90
7684;DHT22;3884;48.616;12.872;2022-09-03T12:02:15;21.60;99.90
7684;DHT22;3884;48.616;12.872;2022-09-03T12:04:49;21.60;99.90
7684;DHT22;3884;48.616;12.872;2022-09-03T12:07:38;21.50;99.90
7684;DHT22;3884;48.616;12.872;2022-09-03T12:10:15;21.50;99.90
7684;DHT22;3884;48.616;12.872;2022-09-03T12:13:21;21.70;99.90
7684;DHT22;3884;48.616;12.872;2022-09-03T12:16:08;21.90;99.90
7684;DHT22;3884;48.616;12.872;2022-09-03T12:18:40;22.10;99.90
7684;DHT22;3884;48.616;12.872;2022-09-03T12:21:09;22.20;99.90
7684;DHT22;3884;48.616;12.872;2022-09-03T12:23:41;22.20;99.90
7684;DHT22;3884;48.616;12.872;2022-09-03T12:26:11;22.40;99.90
7684;DHT22;3884;48.616;12.872;2022-09-03T12:28:41;22.60;99.90
7684;DHT22;3884;48.616;12.872;2022-09-03T12:31:12;22.50;99.90
7684;DHT22;3884;48.616;12.872;2022-09-03T12:33:49;22.30;99.90
7684;DHT22;3884;48.616;12.872;2022-09-03T12:36:16;22.20;99.90
7684;DHT22;3884;48.616;12.872;2022-09-03T12:38:43;22.50;99.90
7684;DHT22;3884;48.616;12.872;2022-09-03T12:41:23;22.70;99.90
7684;DHT22;3884;48.616;12.872;2022-09-03T12:43:52;22.70;99.90
7684;DHT22;3884;48.616;12.872;2022-09-03T12:46:22;22.60;99.90
7684;DHT22;3884;48.616;12.872;2022-09-03T12:48:58;22.50;99.90
7684;DHT22;3884;48.616;12.872;2022-09-03T12:51:33;22.60;99.90
7684;DHT22;3884;48.616;12.872;2022-09-03T12:54:03;22.80;99.90
7684;DHT22;3884;48.616;12.872;2022-09-03T12:56:32;22.90;99.90
7684;DHT22;3884;48.616;12.872;2022-09-03T12:59:03;22.90;99.90
7684;DHT22;3884;48.616;12.872;2022-09-03T13:01:33;22.70;99.90
7684;DHT22;3884;48.616;12.872;2022-09-03T13:04:07;22.40;99.90
7684;DHT22;3884;48.616;12.872;2022-09-03T13:06:46;22.50;99.90
7684;DHT22;3884;48.616;12.872;2022-09-03T13:09:17;22.50;99.90
7684;DHT22;3884;48.616;12.872;2022-09-03T13:11:45;22.50;99.90
7684;DHT22;3884;48.616;12.872;2022-09-03T13:14:13;22.50;99.90
7684;DHT22;3884;48.616;12.872;2022-09-03T13:17:08;22.30;99.90
7684;DHT22;3884;48.616;12.872;2022-09-03T13:19:50;22.40;99.90
7684;DHT22;3884;48.616;12.872;2022-09-03T13:22:29;22.40;99.90
7684;DHT22;3884;48.616;12.872;2022-09-03T13:25:10;22.40;99.90
7684;DHT22;3884;48.616;12.872;2022-09-03T13:27:43;22.30;99.90
7684;DHT22;3884;48.616;12.872;2022-09-03T13:30:12;22.20;99.90
7684;DHT22;3884;48.616;12.872;2022-09-03T13:32:49;22.10;99.90
7684;DHT22;3884;48.616;12.872;2022-09-03T13:35:27;22.20;99.90
7684;DHT22;3884;48.616;12.872;2022-09-03T13:37:59;22.20;99.90
7684;DHT22;3884;48.616;12.872;2022-09-03T13:40:35;22.20;99.90
7684;DHT22;3884;48.616;12.872;2022-09-03T13:43:09;22.20;99.90
7684;DHT22;3884;48.616;12.872;2022-09-03T13:45:45;22.30;99.90
7684;DHT22;3884;48.616;12.872;2022-09-03T13:48:21;22.40;99.90
7684;DHT22;3884;48.616;12.872;2022-09-03T13:51:12;22.20;99.90
7684;DHT22;3884;48.616;12.872;2022-09-03T13:53:50;22.20;99.90
7684;DHT22;3884;48.616;12.872;2022-09-03T13:56:31;22.10;99.90
7684;DHT22;3884;48.616;12.872;2022-09-03T13:59:06;22.10;99.90
7684;DHT22;3884;48.616;12.872;2022-09-03T14:01:57;22.20;99.90
7684;DHT22;3884;48.616;12.872;2022-09-03T14:04:32;22.20;99.90
7684;DHT22;3884;48.616;12.872;2022-09-03T14:07:08;22.20;99.90
7684;DHT22;3884;48.616;12.872;2022-09-03T14:09:41;22.10;99.90
7684;DHT22;3884;48.616;12.872;2022-09-03T14:12:14;22.10;99.90
7684;DHT22;3884;48.616;12.872;2022-09-03T14:14:51;22.10;99.90
7684;DHT22;3884;48.616;12.872;2022-09-03T14:17:26;22.00;99.90
7684;DHT22;3884;48.616;12.872;2022-09-03T14:20:00;22.00;99.90
7684;DHT22;3884;48.616;12.872;2022-09-03T14:22:42;21.90;99.90
7684;DHT22;3884;48.616;12.872;2022-09-03T14:25:13;22.10;99.90
7684;DHT22;3884;48.616;12.872;2022-09-03T14:27:41;22.10;99.90
7684;DHT22;3884;48.616;12.872;2022-09-03T14:30:19;22.20;99.90
7684;DHT22;3884;48.616;12.872;2022-09-03T14:32:55;22.30;99.90
7684;DHT22;3884;48.616;12.872;2022-09-03T14:35:33;22.80;99.90
7684;DHT22;3884;48.616;12.872;2022-09-03T14:38:26;23.10;99.90
7684;DHT22;3884;48.616;12.872;2022-09-03T14:41:02;23.60;99.90
7684;DHT22;3884;48.616;12.872;2022-09-03T14:46:43;23.10;99.90
7684;DHT22;3884;48.616;12.872;2022-09-03T14:49:23;23.30;99.90
7684;DHT22;3884;48.616;12.872;2022-09-03T14:52:06;23.30;99.90
7684;DHT22;3884;48.616;12.872;2022-09-03T14:54:58;23.80;99.90
7684;DHT22;3884;48.616;12.872;2022-09-03T14:57:50;23.70;99.90
7684;DHT22;3884;48.616;12.872;2022-09-03T15:00:20;24.00;99.90
7684;DHT22;3884;48.616;12.872;2022-09-03T15:06:06;23.90;99.90
7684;DHT22;3884;48.616;12.872;2022-09-03T15:08:54;23.80;99.90
7684;DHT22;3884;48.616;12.872;2022-09-03T15:11:31;24.00;99.90
7684;DHT22;3884;48.616;12.872;2022-09-03T15:14:05;23.90;99.90
7684;DHT22;3884;48.616;12.872;2022-09-03T15:16:44;23.60;99.90
7684;DHT22;3884;48.616;12.872;2022-09-03T15:19:38;23.60;99.90
7684;DHT22;3884;48.616;12.872;2022-09-03T15:22:12;23.10;99.90
7684;DHT22;3884;48.616;12.872;2022-09-03T15:24:48;23.20;99.90
7684;DHT22;3884;48.616;12.872;2022-09-03T15:30:08;23.00;99.90
7684;DHT22;3884;48.616;12.872;2022-09-03T15:32:53;22.90;99.90
7684;DHT22;3884;48.616;12.872;2022-09-03T15:35:37;22.60;99.90
7684;DHT22;3884;48.616;12.872;2022-09-03T15:38:17;22.40;99.90
7684;DHT22;3884;48.616;12.872;2022-09-03T15:40:49;22.20;99.90
7684;DHT22;3884;48.616;12.872;2022-09-03T15:43:21;22.20;99.90
7684;DHT22;3884;48.616;12.872;2022-09-03T15:45:52;22.20;99.90
7684;DHT22;3884;48.616;12.872;2022-09-03T15:48:29;22.20;99.90
7684;DHT22;3884;48.616;12.872;2022-09-03T15:51:07;22.00;99.90
7684;DHT22;3884;48.616;12.872;2022-09-03T15:53:40;21.90;99.90
7684;DHT22;3884;48.616;12.872;2022-09-03T15:56:18;21.90;99.90
7684;DHT22;3884;48.616;12.872;2022-09-03T15:58:53;22.10;99.90
7684;DHT22;3884;48.616;12.872;2022-09-03T16:01:29;22.20;99.90
7684;DHT22;3884;48.616;12.872;2022-09-03T16:04:03;22.30;1.00
7684;DHT22;3884;48.616;12.872;2022-09-03T16:06:42;22.10;1.00
7684;DHT22;3884;48.616;12.872;2022-09-03T16:09:23;22.10;1.00
7684;DHT22;3884;48.616;12.872;2022-09-03T16:11:58;22.00;1.00
7684;DHT22;3884;48.616;12.872;2022-09-03T16:14:32;21.70;1.00
7684;DHT22;3884;48.616;12.872;2022-09-03T16:17:06;21.40;1.00
7684;DHT22;3884;48.616;12.872;2022-09-03T16:19:41;21.40;1.00
7684;DHT22;3884;48.616;12.872;2022-09-03T16:22:14;21.40;1.00
7684;DHT22;3884;48.616;12.872;2022-09-03T16:24:46;21.60;1.00
7684;DHT22;3884;48.616;12.872;2022-09-03T16:27:17;21.70;1.00
7684;DHT22;3884;48.616;12.872;2022-09-03T16:29:56;21.80;1.00
7684;DHT22;3884;48.616;12.872;2022-09-03T16:32:32;21.70;1.00
7684;DHT22;3884;48.616;12.872;2022-09-03T16:35:13;21.70;1.00
7684;DHT22;3884;48.616;12.872;2022-09-03T16:37:50;21.80;1.00